Mitsukawa Maru — JD2495 — position and weather

sailwx.info

Track history (hours):
 
Tides and Currents Weather Stations Pressure Air Temp Water Temp Dewpoint Dewpoint Depression Visibility Wind Speed Wind Dir Waves Ship Positions

Mitsukawa Maru

Last reported at 2017-May-09 13:39 UTC. Time now 2017-May-28 12:29 UTC.
Position N 34°58' E 139°26'.
Warning: this ship's position is 18 days out of date.

Length 105 m; draft 4.2 m.

Type: Ship (hazmat cat D). MMSI: 431000326.

Date/timePositionNaut miles runAvg speedWind from/ knotsBaromVisibWave heightAir tempDewpointWater temp
2017-May-09 13:39N 34°58' E 139°26'212.7
2017-May-09 13:29N 34°59' E 139°28'612.9
2017-May-09 13:00N 35°03' E 139°34'613.3
2017-May-09 12:31N 35°07' E 139°41'612.9
2017-May-09 12:01N 35°11' E 139°46'612.0
2017-May-09 11:30N 35°17' E 139°45'612.6
2017-May-09 11:01N 35°23' E 139°42'713.5
2017-May-09 10:30N 35°28' E 139°48'713.4
2017-May-09 10:00N 35°32' E 139°55'10 6.8
2017-May-09 08:33N 35°35' E 140°07'0 0.0
2017-May-09 08:30N 35°35' E 140°07'0 0.0
2017-May-09 08:00N 35°35' E 140°07'0 0.0
2017-May-09 07:27N 35°35' E 140°07'0 0.0
2017-May-09 06:51N 35°35' E 140°07'0 0.0
2017-May-09 03:20N 35°35' E 140°07'0 0.0
2017-May-08 23:11N 35°35' E 140°07'0 0.0
2017-May-08 22:59N 35°35' E 140°07'1 1.2
2017-May-08 22:23N 35°35' E 140°06'6 2.2
2017-May-08 19:48N 35°34' E 139°59'311.3
2017-May-08 19:30N 35°32' E 139°56'611.3
2017-May-08 19:00N 35°28' E 139°51'611.8
2017-May-08 18:30N 35°24' E 139°46'611.3
2017-May-08 18:00N 35°18' E 139°44'611.6
2017-May-08 17:30N 35°13' E 139°47'611.9
2017-May-08 17:00N 35°07' E 139°45'611.2
2017-May-08 16:30N 35°02' E 139°42'511.0
2017-May-08 16:00N 34°59' E 139°36'1912.3
2017-May-08 14:28N 34°48' E 139°18'  
2017-Apr-30 15:24N 35°04' E 139°37'612.8
2017-Apr-30 14:56N 35°08' E 139°42'512.9
2017-Apr-30 14:30N 35°12' E 139°46'1212.1
2017-Apr-30 13:30N 35°24' E 139°43'713.0
2017-Apr-30 13:00N 35°28' E 139°49'713.0
2017-Apr-30 12:30N 35°32' E 139°56'612.7
2017-Apr-30 12:00N 35°35' E 140°03'3 2.3
2017-Apr-30 10:31N 35°34' E 140°07'0 0.0
2017-Apr-30 10:13N 35°34' E 140°07'0 0.0
2017-Apr-30 09:45N 35°34' E 140°07'0 0.0
2017-Apr-30 09:30N 35°34' E 140°07'0 0.0
2017-Apr-30 09:00N 35°34' E 140°07'0 0.0
2017-Apr-30 08:24N 35°34' E 140°07'0 0.0
2017-Apr-30 05:20N 35°34' E 140°07'0 0.0
2017-Apr-30 04:43N 35°34' E 140°07'0 0.0
2017-Apr-30 04:30N 35°34' E 140°07'0 0.0
2017-Apr-30 03:10N 35°34' E 140°07'0 0.0
2017-Apr-30 02:45N 35°34' E 140°07'0 0.0
2017-Apr-30 02:30N 35°34' E 140°07'0 0.0
2017-Apr-30 01:59N 35°34' E 140°07'0 0.0
2017-Apr-30 01:23N 35°34' E 140°07'0 0.0
2017-Apr-30 00:28N 35°34' E 140°07'0 0.0
2017-Apr-30 00:00N 35°34' E 140°07'0 0.0
2017-Apr-29 23:30N 35°34' E 140°07'0 0.0
2017-Apr-29 23:00N 35°34' E 140°07'0 0.5
2017-Apr-29 22:23N 35°35' E 140°07'6 1.2
2017-Apr-29 17:32N 35°34' E 139°59'010.6
2017-Apr-29 17:29N 35°34' E 139°59'611.9
2017-Apr-29 17:00N 35°30' E 139°54'612.0
2017-Apr-29 16:30N 35°26' E 139°48'611.5
2017-Apr-29 16:00N 35°21' E 139°45'510.8
2017-Apr-29 15:30N 35°16' E 139°47'611.7
2017-Apr-29 15:00N 35°10' E 139°46'611.5
2017-Apr-29 14:28N 35°04' E 139°43'  
Track history (hours):
 
Tides and Currents Weather Stations Pressure Air Temp Water Temp Dewpoint Dewpoint Depression Visibility Wind Speed Wind Dir Waves Ship Positions

Mitsukawa Maru

Last reported at 2017-May-09 13:39 UTC. Time now 2017-May-28 12:29 UTC.
Position N 34°58' E 139°26'.
Warning: this ship's position is 18 days out of date.

Length 105 m; draft 4.2 m.

Type: Ship (hazmat cat D). MMSI: 431000326.

Date/timePositionNaut miles runAvg speedWind from/ knotsBaromVisibWave heightAir tempDewpointWater temp
2017-May-09 13:39N 34°58' E 139°26'212.7
2017-May-09 13:29N 34°59' E 139°28'612.9
2017-May-09 13:00N 35°03' E 139°34'613.3
2017-May-09 12:31N 35°07' E 139°41'612.9
2017-May-09 12:01N 35°11' E 139°46'612.0
2017-May-09 11:30N 35°17' E 139°45'612.6
2017-May-09 11:01N 35°23' E 139°42'713.5
2017-May-09 10:30N 35°28' E 139°48'713.4
2017-May-09 10:00N 35°32' E 139°55'10 6.8
2017-May-09 08:33N 35°35' E 140°07'0 0.0
2017-May-09 08:30N 35°35' E 140°07'0 0.0
2017-May-09 08:00N 35°35' E 140°07'0 0.0
2017-May-09 07:27N 35°35' E 140°07'0 0.0
2017-May-09 06:51N 35°35' E 140°07'0 0.0
2017-May-09 03:20N 35°35' E 140°07'0 0.0
2017-May-08 23:11N 35°35' E 140°07'0 0.0
2017-May-08 22:59N 35°35' E 140°07'1 1.2
2017-May-08 22:23N 35°35' E 140°06'6 2.2
2017-May-08 19:48N 35°34' E 139°59'311.3
2017-May-08 19:30N 35°32' E 139°56'611.3
2017-May-08 19:00N 35°28' E 139°51'611.8
2017-May-08 18:30N 35°24' E 139°46'611.3
2017-May-08 18:00N 35°18' E 139°44'611.6
2017-May-08 17:30N 35°13' E 139°47'611.9
2017-May-08 17:00N 35°07' E 139°45'611.2
2017-May-08 16:30N 35°02' E 139°42'511.0
2017-May-08 16:00N 34°59' E 139°36'1912.3
2017-May-08 14:28N 34°48' E 139°18'  
2017-Apr-30 15:24N 35°04' E 139°37'612.8
2017-Apr-30 14:56N 35°08' E 139°42'512.9
2017-Apr-30 14:30N 35°12' E 139°46'1212.1
2017-Apr-30 13:30N 35°24' E 139°43'713.0
2017-Apr-30 13:00N 35°28' E 139°49'713.0
2017-Apr-30 12:30N 35°32' E 139°56'612.7
2017-Apr-30 12:00N 35°35' E 140°03'3 2.3
2017-Apr-30 10:31N 35°34' E 140°07'0 0.0
2017-Apr-30 10:13N 35°34' E 140°07'0 0.0
2017-Apr-30 09:45N 35°34' E 140°07'0 0.0
2017-Apr-30 09:30N 35°34' E 140°07'0 0.0
2017-Apr-30 09:00N 35°34' E 140°07'0 0.0
2017-Apr-30 08:24N 35°34' E 140°07'0 0.0
2017-Apr-30 05:20N 35°34' E 140°07'0 0.0
2017-Apr-30 04:43N 35°34' E 140°07'0 0.0
2017-Apr-30 04:30N 35°34' E 140°07'0 0.0
2017-Apr-30 03:10N 35°34' E 140°07'0 0.0
2017-Apr-30 02:45N 35°34' E 140°07'0 0.0
2017-Apr-30 02:30N 35°34' E 140°07'0 0.0
2017-Apr-30 01:59N 35°34' E 140°07'0 0.0
2017-Apr-30 01:23N 35°34' E 140°07'0 0.0
2017-Apr-30 00:28N 35°34' E 140°07'0 0.0
2017-Apr-30 00:00N 35°34' E 140°07'0 0.0
2017-Apr-29 23:30N 35°34' E 140°07'0 0.0
2017-Apr-29 23:00N 35°34' E 140°07'0 0.5
2017-Apr-29 22:23N 35°35' E 140°07'6 1.2
2017-Apr-29 17:32N 35°34' E 139°59'010.6
2017-Apr-29 17:29N 35°34' E 139°59'611.9
2017-Apr-29 17:00N 35°30' E 139°54'612.0
2017-Apr-29 16:30N 35°26' E 139°48'611.5
2017-Apr-29 16:00N 35°21' E 139°45'510.8
2017-Apr-29 15:30N 35°16' E 139°47'611.7
2017-Apr-29 15:00N 35°10' E 139°46'611.5
2017-Apr-29 14:28N 35°04' E 139°43'  

Dump ship's entire track history